UAL2255 KDEN-KBOI
Flight info
| Callsign | UAL2255 |
|---|---|
| Flight time | 1h 35m |
| Altitude | 36000 |
| Route | ZIMMR4 CHNGY REAPS KOURT4 |
| Aircraft | A320/M-SDE3FGHIRWY/LB1 |
Departure
| Time | 2026-05-06 18:29 |
|---|---|
| Airport | Denver International Airport (KDEN) |
Arrival
| Time | 2026-05-06 20:04 |
|---|---|
| Airport | Boise Air Terminal/Gowen Field (KBOI) |
| Time | Latitude | Longitude | Altitude | Speed | Heading |
|---|---|---|---|---|---|
| 2026-05-06 17:49 | 39.85800 | -104.67142 | 5371 ft | 0 kts | 0° |
| 2026-05-06 18:06 | 39.85799 | -104.67142 | 5380 ft | 1 kts | 0° |
| 2026-05-06 18:06 | 39.85775 | -104.67143 | 5378 ft | 4 kts | 359° |
| 2026-05-06 18:06 | 39.85749 | -104.67138 | 5375 ft | 4 kts | 333° |
| 2026-05-06 18:07 | 39.85731 | -104.67117 | 5375 ft | 4 kts | 284° |
| 2026-05-06 18:07 | 39.85729 | -104.67101 | 5377 ft | 1 kts | 271° |
| 2026-05-06 18:07 | 39.85729 | -104.67100 | 5377 ft | 0 kts | 271° |
| 2026-05-06 18:10 | 39.85729 | -104.67101 | 5380 ft | 1 kts | 271° |
| 2026-05-06 18:10 | 39.85725 | -104.67143 | 5380 ft | 7 kts | 250° |
| 2026-05-06 18:10 | 39.85707 | -104.67202 | 5380 ft | 7 kts | 249° |
| 2026-05-06 18:10 | 39.85683 | -104.67262 | 5379 ft | 8 kts | 241° |
| 2026-05-06 18:11 | 39.85664 | -104.67332 | 5381 ft | 10 kts | 267° |
| 2026-05-06 18:11 | 39.85665 | -104.67443 | 5381 ft | 15 kts | 270° |
| 2026-05-06 18:11 | 39.85666 | -104.67586 | 5381 ft | 17 kts | 271° |
| 2026-05-06 18:11 | 39.85668 | -104.67746 | 5381 ft | 19 kts | 270° |
| 2026-05-06 18:12 | 39.85668 | -104.67923 | 5381 ft | 21 kts | 271° |
| 2026-05-06 18:12 | 39.85669 | -104.68115 | 5381 ft | 17 kts | 270° |
| 2026-05-06 18:12 | 39.85742 | -104.68198 | 5378 ft | 17 kts | 359° |
| 2026-05-06 18:12 | 39.85825 | -104.68223 | 5379 ft | 9 kts | 278° |
| 2026-05-06 18:13 | 39.85824 | -104.68319 | 5375 ft | 6 kts | 270° |
| 2026-05-06 18:13 | 39.85824 | -104.68322 | 5373 ft | 0 kts | 270° |
| 2026-05-06 18:21 | 39.85824 | -104.68340 | 5374 ft | 4 kts | 270° |
| 2026-05-06 18:21 | 39.85814 | -104.68382 | 5371 ft | 6 kts | 229° |
| 2026-05-06 18:21 | 39.85770 | -104.68397 | 5371 ft | 7 kts | 179° |
| 2026-05-06 18:21 | 39.85723 | -104.68397 | 5371 ft | 7 kts | 180° |
| 2026-05-06 18:22 | 39.85678 | -104.68397 | 5370 ft | 6 kts | 180° |
| 2026-05-06 18:22 | 39.85641 | -104.68398 | 5372 ft | 5 kts | 181° |
| 2026-05-06 18:22 | 39.85600 | -104.68398 | 5375 ft | 11 kts | 180° |
| 2026-05-06 18:22 | 39.85507 | -104.68400 | 5376 ft | 14 kts | 180° |
| 2026-05-06 18:23 | 39.85415 | -104.68400 | 5381 ft | 12 kts | 180° |
| 2026-05-06 18:23 | 39.85330 | -104.68403 | 5378 ft | 13 kts | 181° |
| 2026-05-06 18:23 | 39.85217 | -104.68435 | 5378 ft | 21 kts | 226° |
| 2026-05-06 18:23 | 39.85204 | -104.68626 | 5373 ft | 23 kts | 270° |
| 2026-05-06 18:24 | 39.85201 | -104.68824 | 5363 ft | 23 kts | 270° |
| 2026-05-06 18:24 | 39.85197 | -104.69000 | 5354 ft | 17 kts | 268° |
| 2026-05-06 18:24 | 39.85196 | -104.69149 | 5349 ft | 18 kts | 271° |
| 2026-05-06 18:24 | 39.85199 | -104.69305 | 5342 ft | 16 kts | 272° |
| 2026-05-06 18:25 | 39.85201 | -104.69453 | 5338 ft | 11 kts | 270° |
| 2026-05-06 18:25 | 39.85201 | -104.69517 | 5341 ft | 2 kts | 271° |
| 2026-05-06 18:25 | 39.85202 | -104.69532 | 5338 ft | 1 kts | 271° |
| 2026-05-06 18:25 | 39.85204 | -104.69600 | 5339 ft | 15 kts | 275° |
| 2026-05-06 18:26 | 39.85249 | -104.69657 | 5339 ft | 14 kts | 351° |
| 2026-05-06 18:26 | 39.85258 | -104.69657 | 5339 ft | 0 kts | 359° |
| 2026-05-06 18:27 | 39.85259 | -104.69657 | 5338 ft | 1 kts | 359° |
| 2026-05-06 18:28 | 39.85349 | -104.69638 | 5337 ft | 22 kts | 19° |
| 2026-05-06 18:28 | 39.85783 | -104.69636 | 5339 ft | 102 kts | 0° |
| 2026-05-06 18:28 | 39.86717 | -104.69632 | 5337 ft | 164 kts | 0° |
| 2026-05-06 18:28 | 39.87963 | -104.69611 | 5805 ft | 184 kts | 2° |
| 2026-05-06 18:29 | 39.89236 | -104.69606 | 6916 ft | 182 kts | 0° |
| 2026-05-06 18:29 | 39.90535 | -104.69605 | 7585 ft | 193 kts | 0° |
| 2026-05-06 18:29 | 39.91940 | -104.69788 | 7831 ft | 215 kts | 338° |
| 2026-05-06 18:29 | 39.93087 | -104.71125 | 8107 ft | 236 kts | 297° |
| 2026-05-06 18:30 | 39.93515 | -104.73286 | 8415 ft | 259 kts | 275° |
| 2026-05-06 18:30 | 39.93556 | -104.75730 | 8908 ft | 277 kts | 268° |
| 2026-05-06 18:30 | 39.93462 | -104.78270 | 9672 ft | 284 kts | 266° |
| 2026-05-06 18:30 | 39.93353 | -104.80864 | 9951 ft | 287 kts | 267° |
| 2026-05-06 18:31 | 39.93270 | -104.83457 | 9999 ft | 286 kts | 268° |
| 2026-05-06 18:31 | 39.93224 | -104.86047 | 9998 ft | 286 kts | 269° |
| 2026-05-06 18:31 | 39.93208 | -104.88633 | 9995 ft | 286 kts | 270° |
| 2026-05-06 18:31 | 39.93219 | -104.91228 | 10022 ft | 290 kts | 271° |
| 2026-05-06 18:32 | 39.93325 | -104.93962 | 10287 ft | 313 kts | 274° |
| 2026-05-06 18:32 | 39.93494 | -104.96833 | 10925 ft | 320 kts | 275° |
| 2026-05-06 18:32 | 39.93685 | -104.99736 | 11692 ft | 324 kts | 275° |
| 2026-05-06 18:32 | 39.93878 | -105.02675 | 12485 ft | 327 kts | 275° |
| 2026-05-06 18:33 | 39.94063 | -105.05609 | 13238 ft | 331 kts | 275° |
| 2026-05-06 18:33 | 39.94243 | -105.08651 | 14019 ft | 334 kts | 275° |
| 2026-05-06 18:33 | 39.94412 | -105.11648 | 14708 ft | 336 kts | 275° |
| 2026-05-06 18:33 | 39.94578 | -105.14658 | 15446 ft | 337 kts | 275° |
| 2026-05-06 18:34 | 39.94747 | -105.17705 | 16197 ft | 337 kts | 275° |
| 2026-05-06 18:34 | 39.94917 | -105.20747 | 16953 ft | 337 kts | 275° |
| 2026-05-06 18:34 | 39.95085 | -105.23793 | 17717 ft | 337 kts | 274° |
| 2026-05-06 18:34 | 39.95254 | -105.26842 | 18480 ft | 337 kts | 274° |
| 2026-05-06 18:35 | 39.95421 | -105.29894 | 19084 ft | 339 kts | 274° |
| 2026-05-06 18:35 | 39.95588 | -105.32966 | 19710 ft | 341 kts | 274° |
| 2026-05-06 18:35 | 39.95759 | -105.36065 | 20317 ft | 344 kts | 274° |
| 2026-05-06 18:35 | 39.95932 | -105.39186 | 20904 ft | 347 kts | 274° |
| 2026-05-06 18:36 | 39.96102 | -105.42334 | 21478 ft | 350 kts | 274° |
| 2026-05-06 18:36 | 39.96271 | -105.45514 | 22028 ft | 353 kts | 274° |
| 2026-05-06 18:36 | 39.96442 | -105.48719 | 22588 ft | 356 kts | 274° |
| 2026-05-06 18:36 | 39.96611 | -105.51955 | 23137 ft | 359 kts | 274° |
| 2026-05-06 18:37 | 39.96781 | -105.55221 | 23695 ft | 363 kts | 274° |
| 2026-05-06 18:37 | 39.96953 | -105.58521 | 24128 ft | 366 kts | 274° |
| 2026-05-06 18:37 | 39.97126 | -105.61851 | 24545 ft | 371 kts | 275° |
| 2026-05-06 18:37 | 39.97301 | -105.65222 | 24898 ft | 375 kts | 276° |
| 2026-05-06 18:38 | 39.97481 | -105.68645 | 25188 ft | 382 kts | 276° |
| 2026-05-06 18:38 | 39.97662 | -105.72121 | 25570 ft | 387 kts | 276° |
| 2026-05-06 18:38 | 39.97841 | -105.75646 | 25969 ft | 391 kts | 277° |
| 2026-05-06 18:38 | 39.98018 | -105.79198 | 26346 ft | 395 kts | 277° |
| 2026-05-06 18:39 | 39.98198 | -105.82792 | 26740 ft | 399 kts | 277° |
| 2026-05-06 18:39 | 39.98378 | -105.86415 | 27124 ft | 403 kts | 277° |
| 2026-05-06 18:39 | 39.98557 | -105.90074 | 27500 ft | 406 kts | 278° |
| 2026-05-06 18:40 | 39.98920 | -105.97490 | 28210 ft | 413 kts | 278° |
| 2026-05-06 18:40 | 39.99102 | -106.01243 | 28548 ft | 418 kts | 279° |
| 2026-05-06 18:40 | 39.99287 | -106.05051 | 28840 ft | 423 kts | 280° |
| 2026-05-06 18:40 | 39.99473 | -106.08895 | 29155 ft | 427 kts | 280° |
| 2026-05-06 18:41 | 39.99657 | -106.12771 | 29514 ft | 430 kts | 281° |
| 2026-05-06 18:41 | 39.99844 | -106.16691 | 29817 ft | 435 kts | 281° |
| 2026-05-06 18:41 | 40.00032 | -106.20647 | 30146 ft | 439 kts | 282° |
| 2026-05-06 18:41 | 40.00218 | -106.24638 | 30462 ft | 442 kts | 281° |
| 2026-05-06 18:42 | 40.00402 | -106.28652 | 30789 ft | 445 kts | 281° |
| 2026-05-06 18:42 | 40.00585 | -106.32690 | 31123 ft | 447 kts | 281° |
| 2026-05-06 18:42 | 40.00766 | -106.36737 | 31428 ft | 449 kts | 282° |
| 2026-05-06 18:42 | 40.00949 | -106.40813 | 31782 ft | 450 kts | 282° |
| 2026-05-06 18:43 | 40.01362 | -106.44800 | 32235 ft | 438 kts | 291° |
| 2026-05-06 18:43 | 40.02268 | -106.48539 | 32713 ft | 427 kts | 300° |
| 2026-05-06 18:43 | 40.03605 | -106.51940 | 33154 ft | 418 kts | 308° |
| 2026-05-06 18:43 | 40.05108 | -106.55128 | 33581 ft | 418 kts | 308° |
| 2026-05-06 18:44 | 40.06625 | -106.58359 | 34000 ft | 417 kts | 307° |
| 2026-05-06 18:44 | 40.08138 | -106.61596 | 34389 ft | 417 kts | 307° |
| 2026-05-06 18:44 | 40.09644 | -106.64828 | 34739 ft | 416 kts | 306° |
| 2026-05-06 18:44 | 40.11148 | -106.68064 | 35071 ft | 416 kts | 306° |
| 2026-05-06 18:45 | 40.12648 | -106.71299 | 35390 ft | 416 kts | 307° |
| 2026-05-06 18:45 | 40.14145 | -106.74532 | 35759 ft | 415 kts | 306° |
| 2026-05-06 18:45 | 40.15639 | -106.77763 | 36037 ft | 416 kts | 306° |
| 2026-05-06 18:46 | 40.18616 | -106.84202 | 36107 ft | 412 kts | 306° |
| 2026-05-06 18:46 | 40.21581 | -106.90606 | 36114 ft | 411 kts | 306° |
| 2026-05-06 18:47 | 40.24534 | -106.97020 | 36123 ft | 411 kts | 306° |
| 2026-05-06 18:47 | 40.27480 | -107.03440 | 36134 ft | 411 kts | 306° |
| 2026-05-06 18:48 | 40.30423 | -107.09854 | 36130 ft | 410 kts | 307° |
| 2026-05-06 18:48 | 40.33364 | -107.16266 | 36144 ft | 411 kts | 307° |
| 2026-05-06 18:49 | 40.36284 | -107.22651 | 36152 ft | 411 kts | 307° |
| 2026-05-06 18:49 | 40.39219 | -107.29081 | 36160 ft | 411 kts | 307° |
| 2026-05-06 18:50 | 40.42151 | -107.35524 | 36160 ft | 411 kts | 307° |
| 2026-05-06 18:50 | 40.45072 | -107.41972 | 36144 ft | 411 kts | 308° |
| 2026-05-06 18:51 | 40.47993 | -107.48423 | 36160 ft | 410 kts | 308° |
| 2026-05-06 18:51 | 40.50906 | -107.54852 | 36166 ft | 409 kts | 308° |
| 2026-05-06 18:52 | 40.53811 | -107.61290 | 36167 ft | 409 kts | 308° |
| 2026-05-06 18:52 | 40.56711 | -107.67728 | 36159 ft | 409 kts | 308° |
| 2026-05-06 18:53 | 40.59603 | -107.74173 | 36148 ft | 409 kts | 308° |
| 2026-05-06 18:53 | 40.62489 | -107.80616 | 36129 ft | 409 kts | 308° |
| 2026-05-06 18:54 | 40.65382 | -107.87055 | 36125 ft | 408 kts | 309° |
| 2026-05-06 18:54 | 40.68263 | -107.93497 | 36132 ft | 408 kts | 308° |
| 2026-05-06 18:55 | 40.71135 | -107.99958 | 36137 ft | 408 kts | 308° |
| 2026-05-06 18:55 | 40.74003 | -108.06411 | 36141 ft | 408 kts | 308° |
| 2026-05-06 18:56 | 40.76873 | -108.12870 | 36159 ft | 408 kts | 309° |
| 2026-05-06 18:56 | 40.79729 | -108.19333 | 36165 ft | 408 kts | 308° |
| 2026-05-06 18:57 | 40.82581 | -108.25797 | 36174 ft | 407 kts | 308° |
| 2026-05-06 18:57 | 40.85436 | -108.32252 | 36165 ft | 407 kts | 309° |
| 2026-05-06 18:58 | 40.88286 | -108.38712 | 36174 ft | 407 kts | 308° |
| 2026-05-06 18:58 | 40.91101 | -108.45152 | 36152 ft | 407 kts | 308° |
| 2026-05-06 18:59 | 40.93934 | -108.51623 | 36183 ft | 406 kts | 308° |
| 2026-05-06 18:59 | 40.96759 | -108.58077 | 36196 ft | 405 kts | 308° |
| 2026-05-06 19:00 | 40.99571 | -108.64528 | 36197 ft | 405 kts | 308° |
| 2026-05-06 19:00 | 41.02380 | -108.70986 | 36214 ft | 404 kts | 308° |
| 2026-05-06 19:01 | 41.05189 | -108.77432 | 36209 ft | 404 kts | 308° |
| 2026-05-06 19:01 | 41.07988 | -108.83882 | 36197 ft | 403 kts | 308° |
| 2026-05-06 19:02 | 41.10772 | -108.90335 | 36216 ft | 403 kts | 308° |
| 2026-05-06 19:02 | 41.13555 | -108.96774 | 36223 ft | 402 kts | 308° |
| 2026-05-06 19:03 | 41.16332 | -109.03217 | 36231 ft | 402 kts | 308° |
| 2026-05-06 19:03 | 41.19098 | -109.09663 | 36239 ft | 402 kts | 308° |
| 2026-05-06 19:04 | 41.21860 | -109.16113 | 36213 ft | 402 kts | 308° |
| 2026-05-06 19:04 | 41.24622 | -109.22564 | 36227 ft | 401 kts | 308° |
| 2026-05-06 19:05 | 41.27378 | -109.29014 | 36226 ft | 401 kts | 308° |
| 2026-05-06 19:05 | 41.30131 | -109.35467 | 36227 ft | 401 kts | 308° |
| 2026-05-06 19:06 | 41.32878 | -109.41927 | 36224 ft | 401 kts | 308° |
| 2026-05-06 19:06 | 41.35619 | -109.48404 | 36197 ft | 401 kts | 308° |
| 2026-05-06 19:07 | 41.38353 | -109.54868 | 36208 ft | 400 kts | 308° |
| 2026-05-06 19:07 | 41.41071 | -109.61289 | 36224 ft | 400 kts | 308° |
| 2026-05-06 19:08 | 41.43800 | -109.67759 | 36213 ft | 400 kts | 308° |
| 2026-05-06 19:08 | 41.46527 | -109.74235 | 36220 ft | 400 kts | 308° |
| 2026-05-06 19:09 | 41.49240 | -109.80710 | 36174 ft | 400 kts | 308° |
| 2026-05-06 19:09 | 41.51954 | -109.87191 | 36191 ft | 400 kts | 308° |
| 2026-05-06 19:10 | 41.54206 | -109.92578 | 36197 ft | 400 kts | 308° |
| 2026-05-06 19:10 | 41.56912 | -109.99063 | 36198 ft | 400 kts | 307° |
| 2026-05-06 19:11 | 41.59613 | -110.05551 | 36203 ft | 400 kts | 307° |
| 2026-05-06 19:11 | 41.62310 | -110.12054 | 36194 ft | 400 kts | 307° |
| 2026-05-06 19:12 | 41.65000 | -110.18553 | 36190 ft | 399 kts | 307° |
| 2026-05-06 19:12 | 41.67688 | -110.25046 | 36206 ft | 399 kts | 307° |
| 2026-05-06 19:13 | 41.70369 | -110.31546 | 36217 ft | 399 kts | 307° |
| 2026-05-06 19:13 | 41.73049 | -110.38047 | 36228 ft | 399 kts | 307° |
| 2026-05-06 19:14 | 41.75720 | -110.44554 | 36237 ft | 399 kts | 307° |
| 2026-05-06 19:14 | 41.78387 | -110.51065 | 36225 ft | 398 kts | 307° |
| 2026-05-06 19:15 | 41.81053 | -110.57570 | 36230 ft | 398 kts | 307° |
| 2026-05-06 19:15 | 41.83711 | -110.64085 | 36172 ft | 398 kts | 307° |
| 2026-05-06 19:16 | 41.86360 | -110.70611 | 36176 ft | 398 kts | 307° |
| 2026-05-06 19:16 | 41.89007 | -110.77135 | 36170 ft | 398 kts | 307° |
| 2026-05-06 19:17 | 41.91660 | -110.83665 | 36129 ft | 398 kts | 306° |
| 2026-05-06 19:17 | 41.94309 | -110.90204 | 36150 ft | 399 kts | 306° |
| 2026-05-06 19:18 | 41.96951 | -110.96756 | 36162 ft | 399 kts | 306° |
| 2026-05-06 19:18 | 41.99591 | -111.03311 | 36156 ft | 399 kts | 306° |
| 2026-05-06 19:19 | 42.02230 | -111.09874 | 36164 ft | 399 kts | 306° |
| 2026-05-06 19:19 | 42.04869 | -111.16447 | 36127 ft | 399 kts | 306° |
| 2026-05-06 19:20 | 42.07499 | -111.23030 | 36139 ft | 400 kts | 306° |
| 2026-05-06 19:20 | 42.10122 | -111.29631 | 36147 ft | 400 kts | 306° |
| 2026-05-06 19:21 | 42.12747 | -111.36230 | 36153 ft | 400 kts | 306° |
| 2026-05-06 19:21 | 42.15356 | -111.42794 | 36159 ft | 400 kts | 306° |
| 2026-05-06 19:22 | 42.17982 | -111.49406 | 36172 ft | 400 kts | 305° |
| 2026-05-06 19:22 | 42.20604 | -111.56023 | 36167 ft | 400 kts | 305° |
| 2026-05-06 19:23 | 42.23235 | -111.62689 | 36168 ft | 400 kts | 305° |
| 2026-05-06 19:23 | 42.25823 | -111.69283 | 36169 ft | 400 kts | 305° |
| 2026-05-06 19:24 | 42.28424 | -111.75927 | 36165 ft | 400 kts | 305° |
| 2026-05-06 19:24 | 42.31023 | -111.82567 | 36148 ft | 399 kts | 305° |
| 2026-05-06 19:25 | 42.33625 | -111.89205 | 36163 ft | 399 kts | 305° |
| 2026-05-06 19:25 | 42.36218 | -111.95836 | 36162 ft | 399 kts | 305° |
| 2026-05-06 19:26 | 42.38798 | -112.02467 | 36172 ft | 398 kts | 305° |
| 2026-05-06 19:26 | 42.41373 | -112.09100 | 36161 ft | 398 kts | 304° |
| 2026-05-06 19:27 | 42.43941 | -112.15732 | 36138 ft | 398 kts | 304° |
| 2026-05-06 19:27 | 42.46504 | -112.22372 | 36141 ft | 398 kts | 304° |
| 2026-05-06 19:28 | 42.49067 | -112.29027 | 36155 ft | 398 kts | 304° |
| 2026-05-06 19:28 | 42.51625 | -112.35684 | 36150 ft | 398 kts | 304° |
| 2026-05-06 19:29 | 42.54167 | -112.42306 | 36146 ft | 398 kts | 304° |
| 2026-05-06 19:29 | 42.56718 | -112.48967 | 36122 ft | 398 kts | 304° |
| 2026-05-06 19:30 | 42.59265 | -112.55635 | 36130 ft | 398 kts | 304° |
| 2026-05-06 19:30 | 42.61810 | -112.62312 | 36139 ft | 398 kts | 304° |
| 2026-05-06 19:31 | 42.64352 | -112.68995 | 36142 ft | 398 kts | 304° |
| 2026-05-06 19:31 | 42.68157 | -112.79026 | 36128 ft | 398 kts | 303° |
| 2026-05-06 19:32 | 42.70683 | -112.85723 | 36134 ft | 398 kts | 303° |
| 2026-05-06 19:32 | 42.73208 | -112.92418 | 36141 ft | 397 kts | 303° |
| 2026-05-06 19:33 | 42.75727 | -112.99107 | 36150 ft | 397 kts | 303° |
| 2026-05-06 19:33 | 42.78243 | -113.05808 | 36144 ft | 397 kts | 303° |
| 2026-05-06 19:34 | 42.80748 | -113.12506 | 36150 ft | 397 kts | 303° |
| 2026-05-06 19:34 | 42.83249 | -113.19203 | 36146 ft | 396 kts | 303° |
| 2026-05-06 19:35 | 42.85745 | -113.25891 | 36152 ft | 395 kts | 303° |
| 2026-05-06 19:35 | 42.88227 | -113.32575 | 36145 ft | 395 kts | 303° |
| 2026-05-06 19:36 | 42.90692 | -113.39224 | 36129 ft | 395 kts | 303° |
| 2026-05-06 19:36 | 42.93167 | -113.45919 | 36130 ft | 395 kts | 303° |
| 2026-05-06 19:37 | 42.95636 | -113.52609 | 36138 ft | 394 kts | 303° |
| 2026-05-06 19:37 | 42.97681 | -113.58163 | 36141 ft | 394 kts | 303° |
| 2026-05-06 19:38 | 43.00551 | -113.65978 | 36144 ft | 393 kts | 303° |
| 2026-05-06 19:38 | 43.03003 | -113.72659 | 36141 ft | 393 kts | 303° |
| 2026-05-06 19:39 | 43.05447 | -113.79346 | 36136 ft | 393 kts | 302° |
| 2026-05-06 19:39 | 43.07888 | -113.86038 | 36139 ft | 393 kts | 302° |
| 2026-05-06 19:40 | 43.10322 | -113.92722 | 36101 ft | 393 kts | 302° |
| 2026-05-06 19:40 | 43.11546 | -113.96081 | 35850 ft | 394 kts | 302° |
| 2026-05-06 19:40 | 43.12764 | -113.99433 | 35603 ft | 393 kts | 302° |
| 2026-05-06 19:41 | 43.13974 | -114.02783 | 35352 ft | 392 kts | 302° |
| 2026-05-06 19:41 | 43.15176 | -114.06118 | 35110 ft | 390 kts | 302° |
| 2026-05-06 19:41 | 43.16305 | -114.09504 | 34853 ft | 392 kts | 295° |
| 2026-05-06 19:41 | 43.17067 | -114.13032 | 34437 ft | 392 kts | 290° |
| 2026-05-06 19:42 | 43.17768 | -114.16630 | 33937 ft | 390 kts | 290° |
| 2026-05-06 19:42 | 43.18463 | -114.20214 | 33449 ft | 388 kts | 290° |
| 2026-05-06 19:42 | 43.19151 | -114.23776 | 32971 ft | 385 kts | 290° |
| 2026-05-06 19:42 | 43.19837 | -114.27311 | 32514 ft | 383 kts | 290° |
| 2026-05-06 19:43 | 43.20522 | -114.30830 | 32050 ft | 381 kts | 291° |
| 2026-05-06 19:43 | 43.21203 | -114.34326 | 31594 ft | 379 kts | 291° |
| 2026-05-06 19:43 | 43.21878 | -114.37812 | 31123 ft | 378 kts | 291° |
| 2026-05-06 19:43 | 43.22548 | -114.41284 | 30680 ft | 377 kts | 291° |
| 2026-05-06 19:44 | 43.23215 | -114.44751 | 30222 ft | 376 kts | 291° |
| 2026-05-06 19:44 | 43.23879 | -114.48213 | 29742 ft | 374 kts | 291° |
| 2026-05-06 19:44 | 43.24536 | -114.51648 | 29331 ft | 371 kts | 291° |
| 2026-05-06 19:44 | 43.25189 | -114.55062 | 28937 ft | 369 kts | 291° |
| 2026-05-06 19:45 | 43.25837 | -114.58455 | 28539 ft | 367 kts | 290° |
| 2026-05-06 19:45 | 43.26480 | -114.61828 | 28141 ft | 364 kts | 290° |
| 2026-05-06 19:45 | 43.27121 | -114.65180 | 27744 ft | 362 kts | 290° |
| 2026-05-06 19:45 | 43.27758 | -114.68519 | 27338 ft | 361 kts | 290° |
| 2026-05-06 19:46 | 43.28391 | -114.71847 | 26929 ft | 360 kts | 290° |
| 2026-05-06 19:46 | 43.29021 | -114.75167 | 26522 ft | 358 kts | 290° |
| 2026-05-06 19:46 | 43.29647 | -114.78475 | 26102 ft | 358 kts | 290° |
| 2026-05-06 19:46 | 43.30267 | -114.81775 | 25677 ft | 357 kts | 290° |
| 2026-05-06 19:47 | 43.30886 | -114.85065 | 25247 ft | 356 kts | 290° |
| 2026-05-06 19:47 | 43.31505 | -114.88352 | 24808 ft | 355 kts | 290° |
| 2026-05-06 19:47 | 43.32126 | -114.91651 | 24352 ft | 364 kts | 290° |
| 2026-05-06 19:47 | 43.32778 | -114.95077 | 23896 ft | 375 kts | 290° |
| 2026-05-06 19:48 | 43.33427 | -114.98513 | 23381 ft | 377 kts | 290° |
| 2026-05-06 19:48 | 43.34076 | -115.01989 | 22901 ft | 375 kts | 290° |
| 2026-05-06 19:48 | 43.34718 | -115.05449 | 22423 ft | 373 kts | 290° |
| 2026-05-06 19:48 | 43.35354 | -115.08888 | 21955 ft | 370 kts | 290° |
| 2026-05-06 19:49 | 43.35984 | -115.12311 | 21474 ft | 368 kts | 290° |
| 2026-05-06 19:49 | 43.36608 | -115.15703 | 21004 ft | 365 kts | 290° |
| 2026-05-06 19:49 | 43.37228 | -115.19080 | 20536 ft | 363 kts | 290° |
| 2026-05-06 19:49 | 43.37844 | -115.22431 | 20080 ft | 360 kts | 290° |
| 2026-05-06 19:50 | 43.38453 | -115.25755 | 19608 ft | 357 kts | 290° |
| 2026-05-06 19:50 | 43.39058 | -115.29058 | 19153 ft | 355 kts | 290° |
| 2026-05-06 19:50 | 43.39661 | -115.32339 | 18697 ft | 353 kts | 290° |
| 2026-05-06 19:50 | 43.40260 | -115.35599 | 18208 ft | 350 kts | 290° |
| 2026-05-06 19:51 | 43.40856 | -115.38830 | 17731 ft | 347 kts | 290° |
| 2026-05-06 19:51 | 43.41448 | -115.42038 | 17290 ft | 345 kts | 289° |
| 2026-05-06 19:51 | 43.42033 | -115.45225 | 16839 ft | 343 kts | 289° |
| 2026-05-06 19:51 | 43.42614 | -115.48410 | 16400 ft | 343 kts | 289° |
| 2026-05-06 19:52 | 43.43191 | -115.51575 | 15960 ft | 340 kts | 288° |
| 2026-05-06 19:52 | 43.43764 | -115.54713 | 15520 ft | 337 kts | 288° |
| 2026-05-06 19:52 | 43.44333 | -115.57825 | 15082 ft | 334 kts | 288° |
| 2026-05-06 19:52 | 43.45107 | -115.60798 | 14659 ft | 327 kts | 297° |
| 2026-05-06 19:53 | 43.46043 | -115.63668 | 14080 ft | 329 kts | 297° |
| 2026-05-06 19:53 | 43.46965 | -115.66501 | 13626 ft | 327 kts | 297° |
| 2026-05-06 19:53 | 43.47888 | -115.69343 | 13186 ft | 324 kts | 297° |
| 2026-05-06 19:53 | 43.48804 | -115.72161 | 12764 ft | 321 kts | 297° |
| 2026-05-06 19:54 | 43.49714 | -115.74962 | 12339 ft | 319 kts | 296° |
| 2026-05-06 19:54 | 43.50615 | -115.77737 | 11924 ft | 316 kts | 296° |
| 2026-05-06 19:54 | 43.51512 | -115.80494 | 11513 ft | 314 kts | 296° |
| 2026-05-06 19:54 | 43.52404 | -115.83235 | 11108 ft | 314 kts | 296° |
| 2026-05-06 19:55 | 43.53293 | -115.85973 | 10696 ft | 312 kts | 296° |
| 2026-05-06 19:55 | 43.54163 | -115.88665 | 10494 ft | 302 kts | 296° |
| 2026-05-06 19:55 | 43.54997 | -115.91260 | 10375 ft | 291 kts | 295° |
| 2026-05-06 19:55 | 43.55533 | -115.92928 | 10201 ft | 283 kts | 295° |
| 2026-05-06 19:56 | 43.56323 | -115.95385 | 9646 ft | 277 kts | 295° |
| 2026-05-06 19:56 | 43.57098 | -115.97800 | 9022 ft | 275 kts | 295° |
| 2026-05-06 19:56 | 43.57879 | -116.00227 | 8644 ft | 276 kts | 295° |
| 2026-05-06 19:56 | 43.58656 | -116.02637 | 8389 ft | 272 kts | 295° |
| 2026-05-06 19:57 | 43.59412 | -116.04982 | 8229 ft | 264 kts | 295° |
| 2026-05-06 19:57 | 43.60177 | -116.07255 | 8108 ft | 259 kts | 296° |
| 2026-05-06 19:57 | 43.60941 | -116.09470 | 7999 ft | 252 kts | 296° |
| 2026-05-06 19:57 | 43.61686 | -116.11625 | 7843 ft | 247 kts | 296° |
| 2026-05-06 19:58 | 43.62425 | -116.13761 | 7566 ft | 245 kts | 296° |
| 2026-05-06 19:58 | 43.63150 | -116.15866 | 7310 ft | 241 kts | 295° |
| 2026-05-06 19:58 | 43.63861 | -116.17944 | 7064 ft | 237 kts | 295° |
| 2026-05-06 19:58 | 43.64563 | -116.19999 | 6824 ft | 235 kts | 295° |
| 2026-05-06 19:59 | 43.65252 | -116.22015 | 6575 ft | 227 kts | 294° |
| 2026-05-06 19:59 | 43.65910 | -116.23929 | 6332 ft | 214 kts | 294° |
| 2026-05-06 19:59 | 43.66520 | -116.25724 | 6163 ft | 199 kts | 291° |
| 2026-05-06 19:59 | 43.66820 | -116.27524 | 5871 ft | 188 kts | 272° |
| 2026-05-06 20:00 | 43.66693 | -116.29232 | 5617 ft | 175 kts | 255° |
| 2026-05-06 20:00 | 43.66234 | -116.30743 | 5401 ft | 168 kts | 239° |
| 2026-05-06 20:00 | 43.65518 | -116.31971 | 5196 ft | 162 kts | 222° |
| 2026-05-06 20:00 | 43.64611 | -116.32852 | 4972 ft | 157 kts | 206° |
| 2026-05-06 20:01 | 43.63539 | -116.33364 | 4752 ft | 169 kts | 189° |
| 2026-05-06 20:01 | 43.62379 | -116.33447 | 4538 ft | 161 kts | 174° |
| 2026-05-06 20:01 | 43.61343 | -116.33124 | 4312 ft | 148 kts | 159° |
| 2026-05-06 20:01 | 43.60448 | -116.32493 | 4143 ft | 142 kts | 145° |
| 2026-05-06 20:02 | 43.59703 | -116.31604 | 3970 ft | 142 kts | 132° |
| 2026-05-06 20:02 | 43.59135 | -116.30489 | 3812 ft | 142 kts | 120° |
| 2026-05-06 20:02 | 43.58716 | -116.29260 | 3623 ft | 142 kts | 117° |
| 2026-05-06 20:02 | 43.58294 | -116.28025 | 3431 ft | 143 kts | 116° |
| 2026-05-06 20:03 | 43.57871 | -116.26786 | 3241 ft | 143 kts | 116° |
| 2026-05-06 20:03 | 43.57444 | -116.25546 | 3079 ft | 143 kts | 116° |
| 2026-05-06 20:03 | 43.57019 | -116.24305 | 2928 ft | 143 kts | 116° |
| 2026-05-06 20:03 | 43.56617 | -116.23133 | 2882 ft | 118 kts | 115° |
| 2026-05-06 20:04 | 43.56343 | -116.22326 | 2880 ft | 68 kts | 115° |
| 2026-05-06 20:04 | 43.56167 | -116.21817 | 2880 ft | 31 kts | 115° |
| 2026-05-06 20:04 | 43.56214 | -116.21694 | 2881 ft | 17 kts | 354° |
| 2026-05-06 20:04 | 43.56343 | -116.21712 | 2880 ft | 20 kts | 354° |
| 2026-05-06 20:05 | 43.56487 | -116.21728 | 2881 ft | 22 kts | 355° |
| 2026-05-06 20:05 | 43.56646 | -116.21747 | 2881 ft | 24 kts | 355° |
| 2026-05-06 20:05 | 43.56784 | -116.21766 | 2881 ft | 17 kts | 342° |
| 2026-05-06 20:05 | 43.56816 | -116.21913 | 2881 ft | 15 kts | 263° |
| 2026-05-06 20:06 | 43.56789 | -116.21958 | 2881 ft | 2 kts | 220° |
| 2026-05-06 20:06 | 43.56781 | -116.21968 | 2881 ft | 0 kts | 220° |